createdAt,value
2023-08-15T00:01:20.869Z,18.42
2023-08-15T00:02:54.251Z,18.41
2023-08-15T00:04:26.572Z,18.38
2023-08-15T00:05:59.817Z,18.32
2023-08-15T00:07:33.521Z,18.33
2023-08-15T00:09:06.977Z,18.30
2023-08-15T00:10:39.225Z,18.29
2023-08-15T00:12:12.346Z,18.25
2023-08-15T00:13:44.801Z,18.20
2023-08-15T00:15:18.286Z,18.22
2023-08-15T00:16:50.559Z,18.23
2023-08-15T00:18:23.989Z,18.25
2023-08-15T00:19:56.188Z,18.24
2023-08-15T00:21:29.414Z,18.17
2023-08-15T00:23:04.030Z,18.06
2023-08-15T00:24:37.614Z,17.95
2023-08-15T00:26:10.060Z,17.90
2023-08-15T00:27:43.316Z,17.93
2023-08-15T00:29:15.761Z,18.01
2023-08-15T00:30:49.240Z,18.07
2023-08-15T00:32:21.556Z,18.18
2023-08-15T00:33:56.575Z,18.22
2023-08-15T00:35:28.793Z,18.29
2023-08-15T00:37:02.167Z,18.33
2023-08-15T00:38:35.741Z,18.39
2023-08-15T00:40:10.232Z,18.47
2023-08-15T00:41:42.534Z,18.50
2023-08-15T00:43:18.882Z,18.47
2023-08-15T00:44:51.416Z,18.46
2023-08-15T00:46:25.420Z,18.41
2023-08-15T00:47:58.136Z,18.34
2023-08-15T00:49:31.762Z,18.29
2023-08-15T00:51:04.073Z,18.24
2023-08-15T00:52:37.824Z,18.30
2023-08-15T00:54:11.376Z,18.28
2023-08-15T00:55:46.486Z,18.23
2023-08-15T00:57:20.045Z,18.14
2023-08-15T00:58:54.012Z,18.06
2023-08-15T01:00:27.041Z,18.02
2023-08-15T01:02:01.707Z,18.05
2023-08-15T01:03:34.122Z,18.00
2023-08-15T01:05:08.456Z,17.98
2023-08-15T01:06:40.791Z,17.99
2023-08-15T01:08:14.175Z,18.05
2023-08-15T01:09:47.902Z,18.07
2023-08-15T01:11:21.294Z,18.06
2023-08-15T01:13:02.532Z,18.11
2023-08-15T01:14:42.437Z,18.20
2023-08-15T01:16:20.423Z,18.24
2023-08-15T01:18:02.054Z,18.25
2023-08-15T01:19:40.579Z,18.27
2023-08-15T01:21:23.409Z,18.28
2023-08-15T01:22:59.602Z,18.32
2023-08-15T01:24:34.381Z,18.33
2023-08-15T01:26:07.004Z,18.36
2023-08-15T01:27:41.673Z,18.35
2023-08-15T01:29:14.974Z,18.33
2023-08-15T01:30:54.627Z,18.31
2023-08-15T01:32:36.121Z,18.34
2023-08-15T01:34:17.173Z,18.36
2023-08-15T01:35:57.628Z,18.38
2023-08-15T01:37:31.443Z,18.34
2023-08-15T01:39:07.042Z,18.37
2023-08-15T01:40:43.053Z,18.37
2023-08-15T01:42:17.328Z,18.37
2023-08-15T01:43:50.528Z,18.41
2023-08-15T01:45:27.086Z,18.44
2023-08-15T01:47:01.088Z,18.48
2023-08-15T01:48:34.303Z,18.44
2023-08-15T01:50:08.055Z,18.55
2023-08-15T01:51:41.247Z,18.57
2023-08-15T01:53:13.704Z,18.56
2023-08-15T01:54:46.978Z,18.58
2023-08-15T01:56:20.706Z,18.67
2023-08-15T01:57:53.917Z,18.70
2023-08-15T01:59:27.090Z,18.72
2023-08-15T02:00:59.934Z,18.73
2023-08-15T02:02:33.581Z,18.70
2023-08-15T02:04:06.087Z,18.69
2023-08-15T02:05:39.353Z,18.68
2023-08-15T02:07:11.552Z,18.68
2023-08-15T02:08:44.950Z,18.71
2023-08-15T02:10:17.297Z,18.73
2023-08-15T02:11:56.366Z,18.79
2023-08-15T02:13:33.641Z,18.81
2023-08-15T02:15:08.194Z,18.83
2023-08-15T02:16:40.387Z,18.82
2023-08-15T02:18:13.710Z,18.82
2023-08-15T02:19:45.920Z,18.81
2023-08-15T02:21:19.369Z,18.88
2023-08-15T02:22:52.740Z,18.90
2023-08-15T02:24:25.968Z,18.87
2023-08-15T02:25:58.233Z,18.84
2023-08-15T02:27:33.106Z,18.83
2023-08-15T02:29:05.559Z,18.84
2023-08-15T02:30:38.834Z,18.85
2023-08-15T02:32:11.036Z,18.84
2023-08-15T02:33:44.467Z,18.87
2023-08-15T02:35:16.943Z,18.90
2023-08-15T02:36:52.705Z,18.91
2023-08-15T02:38:24.908Z,18.92
2023-08-15T02:39:58.365Z,18.93
2023-08-15T02:41:31.250Z,18.95
2023-08-15T02:43:06.228Z,19.00
2023-08-15T02:44:38.348Z,19.01
2023-08-15T02:46:11.753Z,19.01
2023-08-15T02:47:43.976Z,19.02
2023-08-15T02:49:17.181Z,19.04
2023-08-15T02:50:50.570Z,18.99
2023-08-15T02:52:22.886Z,18.90
2023-08-15T02:53:56.316Z,18.81
2023-08-15T02:55:28.496Z,18.75
2023-08-15T02:57:01.831Z,18.64
2023-08-15T02:58:35.665Z,18.59
2023-08-15T03:00:10.497Z,18.52
2023-08-15T03:01:43.913Z,18.46
2023-08-15T03:03:16.308Z,18.46
2023-08-15T03:04:49.815Z,18.46
2023-08-15T03:06:22.012Z,18.41
2023-08-15T03:07:55.264Z,18.38
2023-08-15T03:09:27.419Z,18.33
2023-08-15T03:11:01.102Z,18.35
2023-08-15T03:12:33.540Z,18.39
2023-08-15T03:14:08.173Z,18.43
2023-08-15T03:15:41.036Z,18.40
2023-08-15T03:17:15.099Z,18.44
2023-08-15T03:18:47.318Z,18.43
2023-08-15T03:20:20.913Z,18.40
2023-08-15T03:21:53.181Z,18.40
2023-08-15T03:23:27.259Z,18.36
2023-08-15T03:25:00.659Z,18.37
2023-08-15T03:26:33.346Z,18.34
2023-08-15T03:28:06.850Z,18.36
2023-08-15T03:29:40.652Z,18.36
2023-08-15T03:31:14.109Z,18.36
2023-08-15T03:32:58.957Z,18.36
2023-08-15T03:34:31.875Z,18.37
2023-08-15T03:36:05.997Z,18.36
2023-08-15T03:37:39.544Z,18.38
2023-08-15T03:39:12.804Z,18.40
2023-08-15T03:40:45.593Z,18.38
2023-08-15T03:42:19.535Z,18.37
2023-08-15T03:43:53.041Z,18.39
2023-08-15T03:45:26.681Z,18.38
2023-08-15T03:47:00.053Z,18.37
2023-08-15T03:48:32.600Z,18.31
2023-08-15T03:50:06.490Z,18.29
2023-08-15T03:51:47.015Z,18.26
2023-08-15T03:53:23.657Z,18.20
2023-08-15T03:54:56.492Z,18.20
2023-08-15T03:56:30.638Z,18.17
2023-08-15T03:58:02.873Z,18.13
2023-08-15T03:59:36.128Z,18.11
2023-08-15T04:01:09.992Z,18.05
2023-08-15T04:02:43.162Z,17.99
2023-08-15T04:04:15.439Z,18.01
2023-08-15T04:05:49.473Z,18.04
2023-08-15T04:07:22.015Z,18.09
2023-08-15T04:08:56.168Z,18.14
2023-08-15T04:10:28.322Z,18.16
2023-08-15T04:12:01.554Z,18.20
2023-08-15T04:13:34.757Z,18.20
2023-08-15T04:15:07.557Z,18.24
2023-08-15T04:16:42.787Z,18.28
2023-08-15T04:18:15.124Z,18.33
2023-08-15T04:19:48.438Z,18.36
2023-08-15T04:21:21.792Z,18.42
2023-08-15T04:22:55.089Z,18.50
2023-08-15T04:24:31.886Z,18.54
2023-08-15T04:26:04.820Z,18.55
2023-08-15T04:27:38.761Z,18.56
2023-08-15T04:29:11.041Z,18.61
2023-08-15T04:30:44.361Z,18.67
2023-08-15T04:32:18.055Z,18.65
2023-08-15T04:33:51.245Z,18.67
2023-08-15T04:35:23.584Z,18.71
2023-08-15T04:36:57.052Z,18.70
2023-08-15T04:38:30.610Z,18.74
2023-08-15T04:40:04.060Z,18.81
2023-08-15T04:41:38.187Z,18.87
2023-08-15T04:43:10.527Z,18.97
2023-08-15T04:44:43.819Z,19.03
2023-08-15T04:46:16.050Z,19.08
2023-08-15T04:47:50.861Z,19.10
2023-08-15T04:49:24.081Z,19.14
2023-08-15T04:50:57.327Z,19.17
2023-08-15T04:52:30.670Z,19.09
2023-08-15T04:54:02.862Z,19.16
2023-08-15T04:55:36.699Z,19.06
2023-08-15T04:57:09.071Z,19.10
2023-08-15T04:58:42.234Z,19.11
2023-08-15T05:00:16.917Z,19.09
2023-08-15T05:01:50.272Z,19.02
2023-08-15T05:03:24.199Z,19.04
2023-08-15T05:04:57.415Z,19.03
2023-08-15T05:06:29.623Z,19.02
2023-08-15T05:08:02.902Z,19.04
2023-08-15T05:09:35.281Z,19.15
2023-08-15T05:11:09.593Z,19.11
2023-08-15T05:12:41.834Z,19.14
2023-08-15T05:14:16.360Z,19.17
2023-08-15T05:15:49.894Z,19.23
2023-08-15T05:17:22.554Z,19.25
2023-08-15T05:18:57.483Z,19.28
2023-08-15T05:20:29.706Z,19.36
2023-08-15T05:22:03.233Z,19.42
2023-08-15T05:23:36.433Z,19.48
2023-08-15T05:25:11.306Z,19.55
2023-08-15T05:26:49.952Z,19.63
2023-08-15T05:28:23.439Z,19.73
2023-08-15T05:29:55.682Z,19.83
2023-08-15T05:31:29.048Z,19.84
2023-08-15T05:33:01.576Z,19.90
2023-08-15T05:34:36.454Z,19.94
2023-08-15T05:36:09.697Z,19.92
2023-08-15T05:37:42.030Z,19.95
2023-08-15T05:39:15.200Z,19.97
2023-08-15T05:40:47.571Z,20.03
2023-08-15T05:42:20.752Z,20.08
2023-08-15T05:43:52.960Z,20.14
2023-08-15T05:45:26.158Z,20.16
2023-08-15T05:46:58.713Z,20.16
2023-08-15T05:48:32.022Z,20.18
2023-08-15T05:50:06.487Z,20.27
2023-08-15T05:51:39.730Z,20.40
2023-08-15T05:53:11.978Z,20.51
2023-08-15T05:54:45.318Z,20.62
2023-08-15T05:56:17.812Z,20.74
2023-08-15T05:57:51.041Z,20.80
2023-08-15T05:59:23.288Z,20.86
2023-08-15T06:00:56.624Z,20.92
2023-08-15T06:02:30.238Z,20.95
2023-08-15T06:04:03.708Z,21.00
2023-08-15T06:05:37.505Z,21.06
2023-08-15T06:07:10.753Z,21.05
2023-08-15T06:08:42.977Z,21.16
2023-08-15T06:10:16.253Z,21.20
2023-08-15T06:11:51.125Z,21.17
2023-08-15T06:13:23.308Z,21.36
2023-08-15T06:14:56.565Z,21.41
2023-08-15T06:16:28.875Z,21.39
2023-08-15T06:18:02.265Z,21.42
2023-08-15T06:19:34.492Z,21.44
2023-08-15T06:21:09.064Z,21.53
2023-08-15T06:22:41.267Z,21.64
2023-08-15T06:24:15.540Z,21.61
2023-08-15T06:25:47.842Z,21.61
2023-08-15T06:27:21.265Z,21.69
2023-08-15T06:28:54.556Z,21.78
2023-08-15T06:30:27.018Z,21.85
2023-08-15T06:32:00.877Z,21.87
2023-08-15T06:33:33.111Z,21.92
2023-08-15T06:35:07.769Z,22.09
2023-08-15T06:36:41.501Z,22.25
2023-08-15T06:38:14.716Z,22.41
2023-08-15T06:39:46.939Z,22.59
2023-08-15T06:41:20.498Z,22.74
2023-08-15T06:42:52.835Z,22.78
2023-08-15T06:44:27.532Z,22.73
2023-08-15T06:45:59.941Z,22.79
2023-08-15T06:47:33.171Z,22.82
2023-08-15T06:49:05.435Z,22.76
2023-08-15T06:50:38.581Z,22.88
2023-08-15T06:52:12.128Z,22.94
2023-08-15T06:53:46.304Z,22.99
2023-08-15T06:55:18.714Z,23.01
2023-08-15T06:56:52.300Z,23.08
2023-08-15T06:58:25.697Z,23.24
2023-08-15T06:59:57.934Z,23.35
2023-08-15T07:01:31.302Z,23.49
2023-08-15T07:03:03.826Z,23.58
2023-08-15T07:04:41.380Z,23.71
2023-08-15T07:06:14.643Z,23.80
2023-08-15T07:07:48.261Z,23.86
2023-08-15T07:09:21.695Z,23.98
2023-08-15T07:10:55.726Z,24.06
2023-08-15T07:12:28.926Z,24.17
2023-08-15T07:14:02.143Z,24.20
2023-08-15T07:15:34.459Z,24.12
2023-08-15T07:17:07.708Z,24.12
2023-08-15T07:18:40.921Z,24.20
2023-08-15T07:20:15.508Z,24.23
2023-08-15T07:21:48.875Z,24.34
2023-08-15T07:23:23.452Z,24.44
2023-08-15T07:24:55.681Z,24.50
2023-08-15T07:26:29.104Z,24.48
2023-08-15T07:28:01.226Z,24.51
2023-08-15T07:29:34.494Z,24.55
2023-08-15T07:31:06.904Z,24.60
2023-08-15T07:32:40.138Z,24.68
2023-08-15T07:34:13.471Z,24.74
2023-08-15T07:35:45.695Z,24.84
2023-08-15T07:37:18.951Z,24.91
2023-08-15T07:38:53.657Z,25.01
2023-08-15T07:40:25.980Z,25.03
2023-08-15T07:41:59.225Z,25.12
2023-08-15T07:43:31.495Z,25.17
2023-08-15T07:45:05.349Z,25.14
2023-08-15T07:46:38.534Z,25.47
2023-08-15T07:48:11.794Z,25.63
2023-08-15T07:49:43.995Z,25.83
2023-08-15T07:51:17.368Z,26.02
2023-08-15T07:52:50.322Z,26.42
2023-08-15T07:54:25.377Z,26.86
2023-08-15T07:55:58.291Z,27.50
2023-08-15T07:57:32.259Z,28.08
2023-08-15T07:59:05.858Z,28.50
2023-08-15T08:00:38.153Z,28.84
2023-08-15T08:02:11.359Z,29.21
2023-08-15T08:03:45.289Z,29.64
2023-08-15T08:05:17.734Z,30.09
2023-08-15T08:06:50.936Z,30.37
2023-08-15T08:08:24.163Z,30.50
2023-08-15T08:09:58.627Z,30.72
2023-08-15T08:11:31.837Z,30.93
2023-08-15T08:13:07.630Z,30.61
2023-08-15T08:14:48.712Z,29.95
2023-08-15T08:16:31.073Z,30.38
2023-08-15T08:18:03.398Z,30.52
2023-08-15T08:19:36.689Z,31.00
2023-08-15T08:21:10.844Z,31.22
2023-08-15T08:22:44.167Z,31.42
2023-08-15T08:24:17.367Z,31.62
2023-08-15T08:25:51.023Z,31.65
2023-08-15T08:27:24.319Z,31.71
2023-08-15T08:28:57.338Z,31.60
2023-08-15T08:30:31.963Z,31.70
2023-08-15T08:32:05.136Z,32.05
2023-08-15T08:33:38.485Z,32.20
2023-08-15T08:35:12.288Z,31.34
2023-08-15T08:36:45.588Z,31.54
2023-08-15T08:38:19.424Z,31.39
2023-08-15T08:39:54.072Z,31.05
2023-08-15T08:41:28.810Z,30.81
2023-08-15T08:43:02.363Z,31.04
2023-08-15T08:44:36.938Z,31.29
2023-08-15T08:46:10.830Z,30.76
2023-08-15T08:47:45.125Z,30.47
2023-08-15T08:49:20.257Z,30.58
2023-08-15T08:50:53.253Z,30.48
2023-08-15T08:52:27.039Z,30.41
2023-08-15T08:54:01.097Z,30.55
2023-08-15T08:55:35.703Z,30.26
2023-08-15T08:57:11.849Z,30.18
2023-08-15T08:58:50.885Z,30.19
2023-08-15T09:00:29.869Z,30.13
2023-08-15T09:02:03.670Z,30.07
2023-08-15T09:03:36.177Z,30.42
2023-08-15T09:05:10.401Z,30.44
2023-08-15T09:06:43.668Z,30.47
2023-08-15T09:08:16.892Z,30.55
2023-08-15T09:09:49.120Z,30.15
2023-08-15T09:11:22.540Z,30.11
2023-08-15T09:13:00.378Z,30.34
2023-08-15T09:14:33.661Z,30.24
2023-08-15T09:16:06.482Z,30.31
2023-08-15T09:17:40.611Z,30.22
2023-08-15T09:19:13.005Z,29.68
2023-08-15T09:20:47.634Z,29.73
2023-08-15T09:22:22.785Z,29.75
2023-08-15T09:23:56.774Z,29.78
2023-08-15T09:25:31.700Z,29.58
2023-08-15T09:27:06.036Z,29.57
2023-08-15T09:28:42.961Z,29.55
2023-08-15T09:30:18.185Z,29.45
2023-08-15T09:31:52.071Z,29.47
2023-08-15T09:33:24.260Z,29.51
2023-08-15T09:34:57.517Z,29.47
2023-08-15T09:36:33.684Z,29.48
2023-08-15T09:38:07.553Z,29.48
2023-08-15T09:39:41.576Z,29.51
2023-08-15T09:41:13.868Z,29.44
2023-08-15T09:42:48.108Z,29.40
2023-08-15T09:44:31.638Z,29.33
2023-08-15T09:46:04.883Z,29.26
2023-08-15T09:47:38.691Z,29.16
2023-08-15T09:49:12.082Z,29.16
2023-08-15T09:50:46.802Z,29.18
2023-08-15T09:52:20.646Z,29.03
2023-08-15T09:53:55.187Z,29.07
2023-08-15T09:55:28.976Z,29.13
2023-08-15T09:57:02.357Z,29.14
2023-08-15T09:58:34.528Z,29.00
2023-08-15T10:00:13.562Z,28.95
2023-08-15T10:01:52.950Z,28.85
2023-08-15T10:03:31.230Z,28.77
2023-08-15T10:05:04.899Z,28.71
2023-08-15T10:06:38.475Z,28.56
2023-08-15T10:08:11.392Z,28.42
2023-08-15T10:09:45.180Z,28.39
2023-08-15T10:11:19.089Z,28.38
2023-08-15T10:12:53.252Z,28.33
2023-08-15T10:14:25.932Z,28.30
2023-08-15T10:16:01.364Z,28.23
2023-08-15T10:17:33.756Z,28.19
2023-08-15T10:19:07.077Z,28.22
2023-08-15T10:20:40.457Z,28.21
2023-08-15T10:22:13.860Z,28.18
2023-08-15T10:23:46.155Z,28.08
2023-08-15T10:25:36.553Z,28.06
2023-08-15T10:27:12.348Z,28.10
2023-08-15T10:28:47.325Z,28.10
2023-08-15T10:30:31.207Z,28.04
2023-08-15T10:32:06.524Z,27.92
2023-08-15T10:33:39.672Z,27.85
2023-08-15T10:35:14.692Z,27.84
2023-08-15T10:36:47.960Z,27.82
2023-08-15T10:38:21.873Z,27.82
2023-08-15T10:40:08.323Z,27.84
2023-08-15T10:41:43.396Z,27.85
2023-08-15T10:43:16.910Z,27.78
2023-08-15T10:45:00.936Z,27.74
2023-08-15T10:46:36.055Z,27.82
2023-08-15T10:48:11.025Z,27.79
2023-08-15T10:49:48.607Z,27.71
2023-08-15T10:51:22.757Z,27.61
2023-08-15T10:52:59.930Z,27.55
2023-08-15T10:54:33.306Z,27.55
2023-08-15T10:56:06.152Z,27.52
2023-08-15T10:57:39.674Z,27.57
2023-08-15T10:59:14.494Z,27.61
2023-08-15T11:00:47.268Z,27.58
2023-08-15T11:02:20.657Z,27.59
2023-08-15T11:03:57.926Z,27.60
2023-08-15T11:05:30.295Z,27.65
2023-08-15T11:07:03.695Z,27.66
2023-08-15T11:08:41.155Z,27.66
2023-08-15T11:10:14.583Z,27.67
2023-08-15T11:11:47.898Z,27.73
2023-08-15T11:13:20.444Z,27.72
2023-08-15T11:14:53.648Z,27.70
2023-08-15T11:16:25.935Z,27.62
2023-08-15T11:17:59.338Z,27.61
2023-08-15T11:19:35.539Z,27.67
2023-08-15T11:21:11.199Z,27.68
2023-08-15T11:22:44.473Z,27.70
2023-08-15T11:24:17.734Z,27.75
2023-08-15T11:25:50.010Z,27.72
2023-08-15T11:27:23.520Z,27.83
2023-08-15T11:28:57.137Z,27.87
2023-08-15T11:30:30.066Z,27.99
2023-08-15T11:32:04.623Z,28.09
2023-08-15T11:33:37.320Z,28.19
2023-08-15T11:35:19.735Z,28.32
2023-08-15T11:36:52.492Z,28.48
2023-08-15T11:38:26.399Z,28.51
2023-08-15T11:39:58.732Z,28.43
2023-08-15T11:41:36.484Z,28.39
2023-08-15T11:43:09.341Z,28.40
2023-08-15T11:44:42.585Z,28.41
2023-08-15T11:46:15.873Z,28.43
2023-08-15T11:47:58.861Z,28.47
2023-08-15T11:49:42.335Z,28.50
2023-08-15T11:51:23.379Z,28.57
2023-08-15T11:52:56.045Z,28.56
2023-08-15T11:54:29.285Z,28.59
2023-08-15T11:56:01.531Z,28.53
2023-08-15T11:57:37.800Z,28.41
2023-08-15T11:59:18.216Z,28.40
2023-08-15T12:00:52.773Z,28.48
2023-08-15T12:02:26.049Z,28.54
2023-08-15T12:04:01.386Z,28.57
2023-08-15T12:05:33.868Z,28.60
2023-08-15T12:11:01.146Z,28.59
2023-08-15T12:12:39.461Z,28.58
2023-08-15T12:14:20.195Z,28.68
2023-08-15T12:15:53.655Z,28.70
2023-08-15T12:17:28.413Z,28.81
2023-08-15T12:19:01.815Z,28.91
2023-08-15T12:20:35.213Z,29.04
2023-08-15T12:22:09.051Z,29.08
2023-08-15T12:23:42.331Z,29.17
2023-08-15T12:25:15.528Z,29.14
2023-08-15T12:26:47.733Z,29.22
2023-08-15T12:28:21.110Z,29.28
2023-08-15T12:30:12.404Z,29.31
2023-08-15T12:31:46.676Z,29.27
2023-08-15T12:33:35.058Z,29.30
2023-08-15T12:35:13.083Z,29.41
2023-08-15T12:36:45.394Z,29.49
2023-08-15T12:38:20.090Z,29.49
2023-08-15T12:39:52.689Z,29.52
2023-08-15T12:41:26.109Z,29.59
2023-08-15T12:42:58.570Z,29.57
2023-08-15T12:44:32.056Z,29.55
2023-08-15T12:46:04.230Z,29.57
2023-08-15T12:47:37.930Z,29.68
2023-08-15T12:49:10.949Z,29.78
2023-08-15T12:50:44.265Z,29.85
2023-08-15T12:52:17.425Z,29.70
2023-08-15T12:53:51.093Z,29.62
2023-08-15T12:55:24.868Z,29.53
2023-08-15T12:56:57.440Z,29.65
2023-08-15T12:58:30.578Z,29.81
2023-08-15T13:00:03.905Z,29.86
2023-08-15T13:01:38.850Z,29.82
2023-08-15T13:03:14.329Z,29.93
2023-08-15T13:04:47.613Z,30.03
2023-08-15T13:06:20.203Z,30.07
2023-08-15T13:07:53.770Z,30.14
2023-08-15T13:09:28.550Z,30.15
2023-08-15T13:11:00.827Z,30.12
2023-08-15T13:12:34.315Z,30.20
2023-08-15T13:14:06.620Z,30.23
2023-08-15T13:15:39.864Z,30.33
2023-08-15T13:17:12.805Z,30.41
2023-08-15T13:18:46.249Z,30.43
2023-08-15T13:20:19.441Z,30.50
2023-08-15T13:21:51.877Z,30.48
2023-08-15T13:23:25.026Z,30.46
2023-08-15T13:24:58.766Z,30.42
2023-08-15T13:26:32.008Z,30.24
2023-08-15T13:28:04.684Z,30.22
2023-08-15T13:29:37.831Z,30.15
2023-08-15T13:31:10.308Z,30.22
2023-08-15T13:32:43.545Z,30.21
2023-08-15T13:34:18.488Z,30.22
2023-08-15T13:35:50.809Z,30.13
2023-08-15T13:37:24.250Z,30.08
2023-08-15T13:38:57.596Z,30.00
2023-08-15T13:40:32.195Z,29.99
2023-08-15T13:42:04.770Z,29.97
2023-08-15T13:43:38.128Z,29.96
2023-08-15T13:45:10.911Z,30.00
2023-08-15T13:46:44.992Z,30.04
2023-08-15T13:48:17.721Z,30.10
2023-08-15T13:49:51.048Z,30.11
2023-08-15T13:51:23.327Z,30.21
2023-08-15T13:52:56.546Z,30.23
2023-08-15T13:54:30.198Z,30.23
2023-08-15T13:56:04.465Z,30.36
2023-08-15T13:57:37.652Z,30.25
2023-08-15T13:59:09.848Z,30.27
2023-08-15T14:00:43.082Z,30.26
2023-08-15T14:02:16.038Z,30.23
2023-08-15T14:03:49.412Z,30.21
2023-08-15T14:05:21.768Z,30.16
2023-08-15T14:06:59.912Z,30.03
2023-08-15T14:08:33.865Z,29.99
2023-08-15T14:10:06.835Z,29.97
2023-08-15T14:11:41.532Z,30.03
2023-08-15T14:13:13.760Z,30.01
2023-08-15T14:14:47.097Z,30.05
2023-08-15T14:16:21.492Z,29.93
2023-08-15T14:17:53.746Z,29.91
2023-08-15T14:19:26.975Z,29.74
2023-08-15T14:20:59.417Z,29.86
2023-08-15T14:22:32.599Z,29.91
2023-08-15T14:24:06.251Z,29.83
2023-08-15T14:25:39.552Z,29.81
2023-08-15T14:27:13.414Z,29.93
2023-08-15T14:28:46.598Z,29.92
2023-08-15T14:30:18.991Z,29.92
2023-08-15T14:31:52.213Z,30.10
2023-08-15T14:33:28.461Z,30.20
2023-08-15T14:35:00.614Z,30.13
2023-08-15T14:36:33.854Z,29.99
2023-08-15T14:38:07.482Z,29.92
2023-08-15T14:39:39.981Z,29.82
2023-08-15T14:41:13.509Z,29.76
2023-08-15T14:42:47.125Z,29.57
2023-08-15T14:44:20.369Z,29.53
2023-08-15T14:45:53.028Z,29.53
2023-08-15T14:47:30.691Z,29.52
2023-08-15T14:49:05.198Z,29.44
2023-08-15T14:50:38.416Z,29.26
2023-08-15T14:52:11.450Z,29.24
2023-08-15T14:53:44.658Z,29.30
2023-08-15T14:55:18.058Z,29.25
2023-08-15T14:56:50.241Z,29.28
2023-08-15T14:58:25.119Z,29.29
2023-08-15T14:59:57.298Z,29.28
2023-08-15T15:01:30.558Z,29.32
2023-08-15T15:03:04.273Z,29.38
2023-08-15T15:04:36.741Z,29.38
2023-08-15T15:06:09.994Z,29.29
2023-08-15T15:07:43.193Z,29.15
2023-08-15T15:09:15.477Z,29.03
2023-08-15T15:10:52.487Z,28.95
2023-08-15T15:12:24.631Z,29.02
2023-08-15T15:13:59.251Z,28.95
2023-08-15T15:15:46.041Z,28.94
2023-08-15T15:17:25.077Z,29.03
2023-08-15T15:18:57.364Z,29.04
2023-08-15T15:20:30.970Z,29.09
2023-08-15T15:22:03.253Z,29.05
2023-08-15T15:23:36.712Z,29.11
2023-08-15T15:25:09.779Z,29.10
2023-08-15T15:26:43.014Z,29.16
2023-08-15T15:28:15.775Z,29.12
2023-08-15T15:29:50.590Z,29.12
2023-08-15T15:31:22.964Z,29.06
2023-08-15T15:32:56.213Z,29.05
2023-08-15T15:34:28.642Z,28.98
2023-08-15T15:36:01.993Z,28.94
2023-08-15T15:37:35.373Z,28.81
2023-08-15T15:39:09.426Z,28.72
2023-08-15T15:40:41.652Z,28.59
2023-08-15T15:42:15.118Z,28.45
2023-08-15T15:43:48.999Z,28.42
2023-08-15T15:45:23.828Z,28.34
2023-08-15T15:46:56.195Z,28.32
2023-08-15T15:48:29.566Z,28.37
2023-08-15T15:50:01.898Z,28.33
2023-08-15T15:51:35.128Z,28.36
2023-08-15T15:53:08.429Z,28.34
2023-08-15T15:54:41.027Z,28.27
2023-08-15T15:56:14.261Z,28.23
2023-08-15T15:57:46.518Z,28.21
2023-08-15T15:59:19.653Z,28.09
2023-08-15T16:00:55.893Z,27.99
2023-08-15T16:02:29.101Z,27.98
2023-08-15T16:04:01.550Z,27.94
2023-08-15T16:05:34.764Z,27.77
2023-08-15T16:07:09.697Z,27.67
2023-08-15T16:08:43.864Z,27.58
2023-08-15T16:10:17.176Z,27.51
2023-08-15T16:11:49.580Z,27.49
2023-08-15T16:13:24.199Z,27.42
2023-08-15T16:14:56.473Z,27.41
2023-08-15T16:16:31.043Z,27.37
2023-08-15T16:18:03.492Z,27.37
2023-08-15T16:19:37.054Z,27.38
2023-08-15T16:21:09.326Z,27.35
2023-08-15T16:22:42.538Z,27.31
2023-08-15T16:24:14.887Z,27.36
2023-08-15T16:25:48.442Z,27.34
2023-08-15T16:27:20.997Z,27.32
2023-08-15T16:28:54.155Z,27.29
2023-08-15T16:30:27.396Z,27.25
2023-08-15T16:32:02.186Z,27.17
2023-08-15T16:33:34.330Z,27.11
2023-08-15T16:35:08.358Z,27.13
2023-08-15T16:36:40.534Z,27.10
2023-08-15T16:38:16.063Z,27.11
2023-08-15T16:39:48.621Z,27.10
2023-08-15T16:41:21.826Z,27.06
2023-08-15T16:43:09.418Z,27.08
2023-08-15T16:44:43.005Z,27.07
2023-08-15T16:46:16.615Z,27.03
2023-08-15T16:47:50.346Z,27.03
2023-08-15T16:49:25.091Z,27.00
2023-08-15T16:50:58.401Z,26.93
2023-08-15T16:52:30.616Z,26.94
2023-08-15T16:54:03.942Z,26.91
2023-08-15T16:55:36.158Z,26.87
2023-08-15T16:57:09.540Z,26.84
2023-08-15T16:58:42.704Z,26.79
2023-08-15T17:00:15.759Z,26.73
2023-08-15T17:01:48.985Z,26.70
2023-08-15T17:03:23.743Z,26.68
2023-08-15T17:04:56.225Z,26.68
2023-08-15T17:06:29.469Z,26.65
2023-08-15T17:08:01.740Z,26.61
2023-08-15T17:09:35.069Z,26.61
2023-08-15T17:11:08.357Z,26.54
2023-08-15T17:12:40.721Z,26.54
2023-08-15T17:14:13.993Z,26.52
2023-08-15T17:15:46.561Z,26.46
2023-08-15T17:17:19.802Z,26.43
2023-08-15T17:18:53.425Z,26.43
2023-08-15T17:20:26.725Z,26.42
2023-08-15T17:22:00.215Z,26.37
2023-08-15T17:23:33.474Z,26.33
2023-08-15T17:25:06.681Z,26.16
2023-08-15T17:26:39.889Z,26.04
2023-08-15T17:28:12.324Z,26.00
2023-08-15T17:29:45.570Z,25.98
2023-08-15T17:31:18.870Z,25.98
2023-08-15T17:32:51.231Z,25.98
2023-08-15T17:34:26.011Z,25.98
2023-08-15T17:35:58.209Z,25.94
2023-08-15T17:37:31.434Z,25.83
2023-08-15T17:39:04.254Z,25.75
2023-08-15T17:40:37.548Z,25.77
2023-08-15T17:42:09.792Z,25.76
2023-08-15T17:43:42.988Z,25.75
2023-08-15T17:45:15.320Z,25.75
2023-08-15T17:46:48.638Z,25.72
2023-08-15T17:48:21.997Z,25.67
2023-08-15T17:49:55.626Z,25.65
2023-08-15T17:51:28.844Z,25.63
2023-08-15T17:53:01.337Z,25.57
2023-08-15T17:54:34.545Z,25.56
2023-08-15T17:56:06.747Z,25.55
2023-08-15T17:57:39.916Z,25.56
2023-08-15T17:59:12.476Z,25.55
2023-08-15T18:00:45.633Z,25.51
2023-08-15T18:02:18.858Z,25.44
2023-08-15T18:03:51.310Z,25.41
2023-08-15T18:05:27.493Z,25.36
2023-08-15T18:06:59.763Z,25.41
2023-08-15T18:08:32.984Z,25.41
2023-08-15T18:10:06.806Z,25.40
2023-08-15T18:11:39.316Z,25.35
2023-08-15T18:13:12.598Z,25.26
2023-08-15T18:14:45.860Z,25.26
2023-08-15T18:16:18.075Z,25.28
2023-08-15T18:17:53.312Z,25.23
2023-08-15T18:19:25.881Z,25.18
2023-08-15T18:21:01.926Z,25.15
2023-08-15T18:22:34.242Z,25.14
2023-08-15T18:24:08.287Z,25.14
2023-08-15T18:25:40.456Z,25.14
2023-08-15T18:27:13.685Z,25.09
2023-08-15T18:28:45.951Z,24.95
2023-08-15T18:30:19.526Z,24.89
2023-08-15T18:31:51.951Z,24.77
2023-08-15T18:33:25.242Z,24.76
2023-08-15T18:34:57.412Z,24.74
2023-08-15T18:36:32.140Z,24.71
2023-08-15T18:38:04.605Z,24.67
2023-08-15T18:39:37.814Z,24.61
2023-08-15T18:41:10.042Z,24.57
2023-08-15T18:42:43.466Z,24.58
2023-08-15T18:44:16.522Z,24.57
2023-08-15T18:45:49.733Z,24.49
2023-08-15T18:47:22.079Z,24.41
2023-08-15T18:48:55.833Z,24.35
2023-08-15T18:50:29.094Z,24.31
2023-08-15T18:52:02.809Z,24.22
2023-08-15T18:53:35.969Z,24.23
2023-08-15T18:55:09.402Z,24.15
2023-08-15T18:56:42.613Z,24.15
2023-08-15T18:58:14.849Z,24.17
2023-08-15T18:59:48.025Z,24.16
2023-08-15T19:01:20.395Z,24.18
2023-08-15T19:02:53.918Z,24.16
2023-08-15T19:04:27.311Z,24.12
2023-08-15T19:05:59.788Z,24.07
2023-08-15T19:07:34.641Z,24.10
2023-08-15T19:09:06.873Z,24.06
2023-08-15T19:10:40.385Z,23.97
2023-08-15T19:12:12.663Z,23.91
2023-08-15T19:13:45.965Z,23.88
2023-08-15T19:15:18.716Z,23.86
2023-08-15T19:16:52.158Z,23.90
2023-08-15T19:18:24.456Z,23.84
2023-08-15T19:19:58.132Z,23.84
2023-08-15T19:21:30.413Z,23.72
2023-08-15T19:23:05.246Z,23.80
2023-08-15T19:24:37.417Z,23.82
2023-08-15T19:26:10.960Z,23.85
2023-08-15T19:27:43.504Z,23.86
2023-08-15T19:29:16.679Z,23.87
2023-08-15T19:30:48.904Z,23.80
2023-08-15T19:32:22.418Z,23.79
2023-08-15T19:33:55.801Z,23.78
2023-08-15T19:35:28.335Z,23.76
2023-08-15T19:37:01.585Z,23.78
2023-08-15T19:38:40.612Z,23.72
2023-08-15T19:40:13.393Z,23.68
2023-08-15T19:41:47.564Z,23.69
2023-08-15T19:43:20.725Z,23.69
2023-08-15T19:44:53.020Z,23.72
2023-08-15T19:46:26.297Z,23.74
2023-08-15T19:47:58.895Z,23.75
2023-08-15T19:49:33.584Z,23.72
2023-08-15T19:51:05.939Z,23.70
2023-08-15T19:52:39.613Z,23.74
2023-08-15T19:54:13.188Z,23.73
2023-08-15T19:55:46.438Z,23.70
2023-08-15T19:57:18.831Z,23.68
2023-08-15T19:58:52.065Z,23.64
2023-08-15T20:00:24.276Z,23.61
2023-08-15T20:01:57.516Z,23.59
2023-08-15T20:05:03.363Z,23.60
2023-08-15T20:06:35.649Z,23.62
2023-08-15T20:08:08.864Z,23.61
2023-08-15T20:09:48.788Z,23.64
2023-08-15T20:11:28.982Z,23.65
2023-08-15T20:13:02.174Z,23.64
2023-08-15T20:14:34.350Z,23.60